createdAt,value
2019-06-07T00:01:49.962Z,5.60
2019-06-07T00:04:23.518Z,7.35
2019-06-07T00:06:56.418Z,5.97
2019-06-07T00:09:28.616Z,6.85
2019-06-07T00:12:00.884Z,6.35
2019-06-07T00:14:34.217Z,6.37
2019-06-07T00:17:07.914Z,9.98
2019-06-07T00:19:39.870Z,10.53
2019-06-07T00:22:17.945Z,7.80
2019-06-07T00:24:45.821Z,11.78
2019-06-07T00:27:21.962Z,7.95
2019-06-07T00:29:51.992Z,7.92
2019-06-07T00:32:24.060Z,8.98
2019-06-07T00:34:55.844Z,7.25
2019-06-07T00:37:27.693Z,6.37
2019-06-07T00:40:13.867Z,6.15
2019-06-07T00:42:33.443Z,7.30
2019-06-07T00:45:06.509Z,7.65
2019-06-07T00:47:38.382Z,6.62
2019-06-07T00:50:11.131Z,7.40
2019-06-07T00:53:13.968Z,5.45
2019-06-07T00:55:20.033Z,5.70
2019-06-07T00:57:53.182Z,5.53
2019-06-07T01:00:25.648Z,4.92
2019-06-07T01:02:57.847Z,5.85
2019-06-07T01:05:31.582Z,5.08
2019-06-07T01:08:04.493Z,4.53
2019-06-07T01:10:52.839Z,4.92
2019-06-07T01:13:10.384Z,5.30
2019-06-07T01:15:42.571Z,5.20
2019-06-07T01:20:48.492Z,4.55
2019-06-07T01:24:01.422Z,4.80
2019-06-07T01:25:54.488Z,5.37
2019-06-07T01:28:27.756Z,7.45
2019-06-07T01:31:00.390Z,5.78
2019-06-07T01:33:50.256Z,6.03
2019-06-07T01:36:06.257Z,7.35
2019-06-07T01:38:38.300Z,8.23
2019-06-07T01:41:11.612Z,7.30
2019-06-07T01:43:45.815Z,5.12
2019-06-07T01:46:18.454Z,6.50
2019-06-07T01:48:52.186Z,6.42
2019-06-07T01:51:24.549Z,6.33
2019-06-07T01:54:47.636Z,5.85
2019-06-07T01:56:31.893Z,6.42
2019-06-07T01:59:03.852Z,6.20
2019-06-07T02:01:35.807Z,6.58
2019-06-07T02:04:07.777Z,6.70
2019-06-07T02:06:39.942Z,6.85
2019-06-07T02:09:11.985Z,6.08
2019-06-07T02:11:45.228Z,6.47
2019-06-07T02:14:34.020Z,7.12
2019-06-07T02:17:06.433Z,6.83
2019-06-07T02:19:39.398Z,6.20
2019-06-07T02:22:13.310Z,6.87
2019-06-07T02:24:45.431Z,7.22
2019-06-07T02:27:17.556Z,6.53
2019-06-07T02:29:49.416Z,7.00
2019-06-07T02:32:24.359Z,8.10
2019-06-07T02:34:56.659Z,6.62
2019-06-07T02:37:32.418Z,6.28
2019-06-07T02:40:04.222Z,7.50
2019-06-07T02:42:42.263Z,6.55
2019-06-07T02:45:11.845Z,6.28
2019-06-07T02:47:45.456Z,15.43
2019-06-07T02:50:17.669Z,7.00
2019-06-07T02:52:49.761Z,6.40
2019-06-07T02:55:21.653Z,7.45
2019-06-07T02:57:54.726Z,5.50
2019-06-07T03:01:07.742Z,5.95
2019-06-07T03:03:18.465Z,6.40
2019-06-07T03:05:50.447Z,6.40
2019-06-07T03:08:22.459Z,6.00
2019-06-07T03:10:54.376Z,5.47
2019-06-07T03:13:28.944Z,5.35
2019-06-07T03:16:01.311Z,6.00
2019-06-07T03:18:50.959Z,4.47
2019-06-07T03:21:24.674Z,4.60
2019-06-07T03:23:57.154Z,4.55
2019-06-07T03:26:31.319Z,5.10
2019-06-07T03:29:02.629Z,5.20
2019-06-07T03:31:41.637Z,4.72
2019-06-07T03:34:08.347Z,4.62
2019-06-07T03:36:40.455Z,4.55
2019-06-07T03:39:12.447Z,4.53
2019-06-07T03:42:04.573Z,6.60
2019-06-07T03:44:18.700Z,6.08
2019-06-07T03:46:50.884Z,6.58
2019-06-07T03:49:22.921Z,7.00
2019-06-07T03:51:54.837Z,6.55
2019-06-07T03:54:27.252Z,6.95
2019-06-07T03:56:59.320Z,6.12
2019-06-07T03:59:35.869Z,6.80
2019-06-07T04:02:05.109Z,7.03
2019-06-07T04:04:38.468Z,7.00
2019-06-07T04:07:10.542Z,7.03
2019-06-07T04:09:43.264Z,7.78
2019-06-07T04:12:15.584Z,6.50
2019-06-07T04:14:47.885Z,6.17
2019-06-07T04:17:19.788Z,7.83
2019-06-07T04:19:52.103Z,7.42
2019-06-07T04:22:26.157Z,7.62
2019-06-07T04:24:57.914Z,8.88
2019-06-07T04:27:30.636Z,10.58
2019-06-07T04:30:07.900Z,8.73
2019-06-07T04:32:39.456Z,9.43
2019-06-07T04:35:10.536Z,9.18
2019-06-07T04:37:42.943Z,9.08
2019-06-07T04:40:14.995Z,8.58
2019-06-07T04:42:46.938Z,9.05
2019-06-07T04:45:33.859Z,9.95
2019-06-07T04:47:52.640Z,9.15
2019-06-07T04:50:24.872Z,9.28
2019-06-07T04:52:57.086Z,9.20
2019-06-07T04:55:29.134Z,7.47
2019-06-07T04:58:01.245Z,7.53
2019-06-07T05:00:49.710Z,7.80
2019-06-07T05:03:08.866Z,7.22
2019-06-07T05:05:43.628Z,6.78
2019-06-07T05:08:27.517Z,9.40
2019-06-07T05:10:48.661Z,5.30
2019-06-07T05:13:20.453Z,5.20
2019-06-07T05:15:52.592Z,4.55
2019-06-07T05:18:24.532Z,4.78
2019-06-07T05:20:56.535Z,4.80
2019-06-07T05:24:04.911Z,3.40
2019-06-07T05:26:01.866Z,3.55
2019-06-07T05:28:35.149Z,3.90
2019-06-07T05:31:08.134Z,3.02
2019-06-07T05:33:41.303Z,3.27
2019-06-07T05:36:13.627Z,3.25
2019-06-07T05:38:45.511Z,3.33
2019-06-07T05:41:17.529Z,2.75
2019-06-07T05:44:09.178Z,4.03
2019-06-07T05:46:23.147Z,3.40
2019-06-07T05:48:55.134Z,3.45
2019-06-07T05:51:27.003Z,3.00
2019-06-07T05:53:59.092Z,3.92
2019-06-07T05:56:30.997Z,3.77
2019-06-07T05:59:02.990Z,3.33
2019-06-07T06:01:46.065Z,3.72
2019-06-07T06:04:08.984Z,3.02
2019-06-07T06:06:43.727Z,3.67
2019-06-07T06:09:14.880Z,3.20
2019-06-07T06:11:59.718Z,3.20
2019-06-07T06:14:20.304Z,3.22
2019-06-07T06:16:52.570Z,2.65
2019-06-07T06:19:24.557Z,2.70
2019-06-07T06:21:56.493Z,4.25
2019-06-07T06:24:28.470Z,2.90
2019-06-07T06:27:18.874Z,2.12
2019-06-07T06:29:34.210Z,2.65
2019-06-07T06:34:44.274Z,1.52
2019-06-07T06:37:14.819Z,1.90
2019-06-07T06:39:49.945Z,4.70
2019-06-07T06:42:20.191Z,3.83
2019-06-07T06:44:54.181Z,3.95
2019-06-07T06:47:26.251Z,2.58
2019-06-07T06:49:58.215Z,2.58
2019-06-07T06:52:30.331Z,2.98
2019-06-07T06:55:02.356Z,1.35
2019-06-07T06:57:34.405Z,1.62
2019-06-07T07:00:10.720Z,1.80
2019-06-07T07:05:15.722Z,1.90
2019-06-07T07:07:51.330Z,1.72
2019-06-07T07:10:24.751Z,1.60
2019-06-07T07:12:56.691Z,1.40
2019-06-07T07:15:28.700Z,1.70
2019-06-07T07:18:08.452Z,2.08
2019-06-07T07:20:33.968Z,1.52
2019-06-07T07:23:06.049Z,1.30
2019-06-07T07:25:37.779Z,1.75
2019-06-07T07:28:09.951Z,2.12
2019-06-07T07:30:44.896Z,1.77
2019-06-07T07:33:17.206Z,1.40
2019-06-07T07:36:13.926Z,1.65
2019-06-07T07:38:23.899Z,1.80
2019-06-07T07:41:06.947Z,2.10
2019-06-07T07:43:29.912Z,1.30
2019-06-07T07:46:03.262Z,2.62
2019-06-07T07:48:37.122Z,2.70
2019-06-07T07:51:09.290Z,3.58
2019-06-07T07:53:51.894Z,2.77
2019-06-07T07:56:16.212Z,2.15
2019-06-07T07:58:54.559Z,2.35
2019-06-07T08:01:22.175Z,2.00
2019-06-07T08:03:54.868Z,3.08
2019-06-07T08:06:28.001Z,2.50
2019-06-07T08:09:00.193Z,1.70
2019-06-07T08:11:32.268Z,1.98
2019-06-07T08:14:04.325Z,2.65
2019-06-07T08:16:36.595Z,3.47
2019-06-07T08:19:08.659Z,3.10
2019-06-07T08:21:40.926Z,1.62
2019-06-07T08:24:12.658Z,1.70
2019-06-07T08:27:06.291Z,1.82
2019-06-07T08:29:18.737Z,1.77
2019-06-07T08:31:52.944Z,1.70
2019-06-07T08:34:24.095Z,1.70
2019-06-07T08:36:59.171Z,1.80
2019-06-07T08:39:29.478Z,1.98
2019-06-07T08:42:15.376Z,1.72
2019-06-07T08:44:35.527Z,2.98
2019-06-07T08:47:20.105Z,2.92
2019-06-07T08:49:41.121Z,2.52
2019-06-07T08:52:13.999Z,2.70
2019-06-07T08:54:46.165Z,2.00
2019-06-07T08:57:21.575Z,2.50
2019-06-07T08:59:53.671Z,3.02
2019-06-07T09:02:26.007Z,2.27
2019-06-07T09:05:03.169Z,2.50
2019-06-07T09:07:33.897Z,2.60
2019-06-07T09:10:14.765Z,4.45
2019-06-07T09:12:42.848Z,2.25
2019-06-07T09:15:22.884Z,1.82
2019-06-07T09:20:36.395Z,1.95
2019-06-07T09:22:59.109Z,3.77
2019-06-07T09:25:29.228Z,2.67
2019-06-07T09:28:10.124Z,3.62
2019-06-07T09:30:40.370Z,3.83
2019-06-07T09:33:12.535Z,2.70
2019-06-07T09:35:44.495Z,3.08
2019-06-07T09:38:25.482Z,4.45
2019-06-07T09:40:50.441Z,3.75
2019-06-07T09:45:58.241Z,2.98
2019-06-07T09:51:08.756Z,2.90
2019-06-07T09:53:37.961Z,2.00
2019-06-07T09:56:12.212Z,1.47
2019-06-07T09:58:53.176Z,1.82
2019-06-07T10:01:17.535Z,1.80
2019-06-07T10:03:49.677Z,1.90
2019-06-07T10:06:21.812Z,1.85
2019-06-07T10:11:27.630Z,1.22
2019-06-07T10:14:00.337Z,2.17
2019-06-07T10:16:45.957Z,2.40
2019-06-07T10:19:09.729Z,7.25
2019-06-07T10:21:40.071Z,1.80
2019-06-07T10:24:12.036Z,1.87
2019-06-07T10:26:44.237Z,1.60
2019-06-07T10:29:16.272Z,1.30
2019-06-07T10:31:48.438Z,1.62
2019-06-07T10:34:20.528Z,1.75
2019-06-07T10:36:52.601Z,1.82
2019-06-07T10:39:26.374Z,1.67
2019-06-07T10:41:58.252Z,1.32
2019-06-07T10:44:32.713Z,1.70
2019-06-07T10:47:06.039Z,1.32
2019-06-07T10:49:38.644Z,1.10
2019-06-07T10:52:11.708Z,1.02
2019-06-07T10:54:45.337Z,1.45
2019-06-07T10:57:17.505Z,1.72
2019-06-07T10:59:49.672Z,1.32
2019-06-07T11:02:21.528Z,1.35
2019-06-07T11:04:53.583Z,1.55
2019-06-07T11:07:25.791Z,1.85
2019-06-07T11:10:08.349Z,1.60
2019-06-07T11:12:31.732Z,3.55
2019-06-07T11:15:04.603Z,2.70
2019-06-07T11:17:36.550Z,3.10
2019-06-07T11:20:10.161Z,3.77
2019-06-07T11:22:42.355Z,2.87
2019-06-07T11:25:14.757Z,4.95
2019-06-07T11:27:47.926Z,1.95
2019-06-07T11:30:19.895Z,1.87
2019-06-07T11:32:51.817Z,2.47
2019-06-07T11:35:24.008Z,2.17
2019-06-07T11:37:55.964Z,2.20
2019-06-07T11:40:35.112Z,1.92
2019-06-07T11:43:01.432Z,2.02
2019-06-07T11:45:33.380Z,2.00
2019-06-07T11:48:07.064Z,1.60
2019-06-07T11:50:39.129Z,2.02
2019-06-07T11:53:12.569Z,2.33
2019-06-07T11:55:44.852Z,1.98
2019-06-07T11:58:21.290Z,2.37
2019-06-07T12:00:50.462Z,2.83
2019-06-07T12:03:23.949Z,1.87
2019-06-07T12:05:56.340Z,2.05
2019-06-07T12:08:28.306Z,2.00
2019-06-07T12:11:00.282Z,2.47
2019-06-07T12:13:33.273Z,2.37
2019-06-07T12:16:05.308Z,2.02
2019-06-07T12:18:37.375Z,2.42
2019-06-07T12:21:09.617Z,1.82
2019-06-07T12:23:41.815Z,2.17
2019-06-07T12:26:16.595Z,2.37
2019-06-07T12:28:48.526Z,2.20
2019-06-07T12:31:21.182Z,1.90
2019-06-07T12:33:53.420Z,1.82
2019-06-07T12:36:25.642Z,2.02
2019-06-07T12:38:57.708Z,1.80
2019-06-07T12:41:29.674Z,2.12
2019-06-07T12:44:01.760Z,2.17
2019-06-07T12:46:33.899Z,1.77
2019-06-07T12:49:06.059Z,2.12
2019-06-07T12:51:38.113Z,1.75
2019-06-07T12:54:10.406Z,1.80
2019-06-07T12:56:42.553Z,1.60
2019-06-07T12:59:15.886Z,1.67
2019-06-07T13:01:48.131Z,1.47
2019-06-07T13:04:20.547Z,2.15
2019-06-07T13:06:52.753Z,1.30
2019-06-07T13:09:24.945Z,1.35
2019-06-07T13:11:57.313Z,1.77
2019-06-07T13:14:29.391Z,1.90
2019-06-07T13:17:01.544Z,2.25
2019-06-07T13:19:33.712Z,1.37
2019-06-07T13:22:05.761Z,1.87
2019-06-07T13:24:38.030Z,2.70
2019-06-07T13:27:11.173Z,1.75
2019-06-07T13:29:43.276Z,5.70
2019-06-07T13:32:15.634Z,1.95
2019-06-07T13:34:47.945Z,1.60
2019-06-07T13:37:21.186Z,1.85
2019-06-07T13:39:53.221Z,1.50
2019-06-07T13:42:25.367Z,1.50
2019-06-07T13:44:57.421Z,1.67
2019-06-07T13:47:31.238Z,2.90
2019-06-07T13:50:05.874Z,2.08
2019-06-07T13:52:40.042Z,2.60
2019-06-07T13:55:12.050Z,2.20
2019-06-07T13:57:44.313Z,2.55
2019-06-07T14:00:16.561Z,3.60
2019-06-07T14:02:50.253Z,2.83
2019-06-07T14:05:23.063Z,2.42
2019-06-07T14:07:55.129Z,2.98
2019-06-07T14:10:27.565Z,2.50
2019-06-07T14:12:59.548Z,2.87
2019-06-07T14:15:34.103Z,3.10
2019-06-07T14:18:05.397Z,3.67
2019-06-07T14:20:37.509Z,3.52
2019-06-07T14:23:09.429Z,4.15
2019-06-07T14:25:41.299Z,3.42
2019-06-07T14:28:13.552Z,3.22
2019-06-07T14:30:45.595Z,4.50
2019-06-07T14:33:17.621Z,6.30
2019-06-07T14:35:49.481Z,6.78
2019-06-07T14:38:21.241Z,6.15
2019-06-07T14:40:53.041Z,7.58
2019-06-07T14:43:25.159Z,6.87
2019-06-07T14:45:57.197Z,6.80
2019-06-07T14:48:30.357Z,7.03
2019-06-07T14:51:02.485Z,7.10
2019-06-07T14:53:35.117Z,4.12
2019-06-07T14:56:09.084Z,5.28
2019-06-07T14:58:43.500Z,3.60
2019-06-07T15:01:14.727Z,3.08
2019-06-07T15:03:46.910Z,4.17
2019-06-07T15:06:20.982Z,4.12
2019-06-07T15:08:53.071Z,5.00
2019-06-07T15:11:25.253Z,4.58
2019-06-07T15:13:57.476Z,5.33
2019-06-07T15:16:30.138Z,5.12
2019-06-07T15:19:03.532Z,5.00
2019-06-07T15:21:36.626Z,5.55
2019-06-07T15:24:09.241Z,6.05
2019-06-07T15:26:41.125Z,5.78
2019-06-07T15:29:13.201Z,6.15
2019-06-07T15:31:45.208Z,5.30
2019-06-07T15:34:17.158Z,4.97
2019-06-07T15:36:49.294Z,4.75
2019-06-07T15:39:21.186Z,5.62
2019-06-07T15:41:53.231Z,5.90
2019-06-07T15:44:25.204Z,6.90
2019-06-07T15:46:57.189Z,6.80
2019-06-07T15:49:30.306Z,6.75
2019-06-07T15:52:02.349Z,6.42
2019-06-07T15:54:34.403Z,6.42
2019-06-07T15:57:06.450Z,8.75
2019-06-07T15:59:39.426Z,6.28
2019-06-07T16:02:11.514Z,5.70
2019-06-07T16:04:43.430Z,5.40
2019-06-07T16:07:15.576Z,5.67
2019-06-07T16:09:47.505Z,5.87
2019-06-07T16:12:19.506Z,8.53
2019-06-07T16:14:51.475Z,8.30
2019-06-07T16:17:23.377Z,6.53
2019-06-07T16:19:57.222Z,9.43
2019-06-07T16:22:29.335Z,10.50
2019-06-07T16:25:01.301Z,10.32
2019-06-07T16:27:34.371Z,8.43
2019-06-07T16:30:09.477Z,8.85
2019-06-07T16:32:44.214Z,8.60
2019-06-07T16:35:16.732Z,10.00
2019-06-07T16:37:52.117Z,8.28
2019-06-07T16:40:23.449Z,9.45
2019-06-07T16:42:57.320Z,8.70
2019-06-07T16:45:30.283Z,10.53
2019-06-07T16:48:02.160Z,9.98
2019-06-07T16:50:34.377Z,9.93
2019-06-07T16:53:06.516Z,9.13
2019-06-07T16:55:38.855Z,9.78
2019-06-07T16:58:10.999Z,9.53
2019-06-07T17:00:44.167Z,9.15
2019-06-07T17:03:16.126Z,10.10
2019-06-07T17:05:50.311Z,10.05
2019-06-07T17:08:22.216Z,10.78
2019-06-07T17:10:54.656Z,10.48
2019-06-07T17:13:33.313Z,10.13
2019-06-07T17:16:00.236Z,10.38
2019-06-07T17:18:36.317Z,11.05
2019-06-07T17:21:06.774Z,10.75
2019-06-07T17:23:39.159Z,11.78
2019-06-07T17:26:11.000Z,12.13
2019-06-07T17:28:43.661Z,16.48
2019-06-07T17:31:15.759Z,12.45
2019-06-07T17:33:50.133Z,12.85
2019-06-07T17:36:23.069Z,11.00
2019-06-07T17:38:57.336Z,11.50
2019-06-07T17:41:32.823Z,11.63
2019-06-07T17:44:03.429Z,12.07
2019-06-07T17:46:35.612Z,12.60
2019-06-07T17:49:08.579Z,13.75
2019-06-07T17:51:41.783Z,16.50
2019-06-07T17:54:16.133Z,12.58
2019-06-07T17:56:48.588Z,14.53
2019-06-07T17:59:20.409Z,14.83
2019-06-07T18:02:13.506Z,14.00
2019-06-07T18:04:26.019Z,13.20
2019-06-07T18:06:58.378Z,14.23
2019-06-07T18:09:30.280Z,14.45
2019-06-07T18:12:02.407Z,13.43
2019-06-07T18:14:34.719Z,13.28
2019-06-07T18:17:07.147Z,14.95
2019-06-07T18:19:39.302Z,13.70
2019-06-07T18:22:13.482Z,13.72
2019-06-07T18:24:46.540Z,12.60
2019-06-07T18:27:18.517Z,12.18
2019-06-07T18:29:50.634Z,13.58
2019-06-07T18:32:22.653Z,13.53
2019-06-07T18:34:56.080Z,13.68
2019-06-07T18:37:27.883Z,13.15
2019-06-07T18:40:00.454Z,14.68
2019-06-07T18:42:33.644Z,13.70
2019-06-07T18:45:09.470Z,13.95
2019-06-07T18:47:41.533Z,14.28
2019-06-07T18:50:13.768Z,13.00
2019-06-07T18:52:46.741Z,13.98
2019-06-07T18:55:19.915Z,13.60
2019-06-07T18:57:52.177Z,13.35
2019-06-07T19:00:26.023Z,14.15
2019-06-07T19:02:58.214Z,13.80
2019-06-07T19:05:31.217Z,13.65
2019-06-07T19:08:03.206Z,14.45
2019-06-07T19:10:35.196Z,28.10
2019-06-07T19:13:07.175Z,16.82
2019-06-07T19:15:39.132Z,18.52
2019-06-07T19:18:35.559Z,18.75
2019-06-07T19:21:07.486Z,19.80
2019-06-07T19:23:39.421Z,19.30
2019-06-07T19:26:11.332Z,22.50
2019-06-07T19:28:43.344Z,18.92
2019-06-07T19:31:15.548Z,18.55
2019-06-07T19:33:49.381Z,17.98
2019-06-07T19:36:21.369Z,20.05
2019-06-07T19:38:53.874Z,13.68
2019-06-07T19:41:25.908Z,14.28
2019-06-07T19:43:58.268Z,13.83
2019-06-07T19:46:30.293Z,10.28
2019-06-07T19:49:03.086Z,10.30
2019-06-07T19:51:35.906Z,10.20
2019-06-07T19:54:07.747Z,8.80
2019-06-07T19:56:39.792Z,8.83
2019-06-07T19:59:11.785Z,7.45
2019-06-07T20:01:43.730Z,7.97
2019-06-07T20:04:15.732Z,7.97
2019-06-07T20:06:47.656Z,8.98
2019-06-07T20:09:19.639Z,8.05
2019-06-07T20:11:51.716Z,8.38
2019-06-07T20:14:23.693Z,8.88
2019-06-07T20:16:57.136Z,10.55
2019-06-07T20:19:29.205Z,13.90
2019-06-07T20:22:01.332Z,14.28
2019-06-07T20:24:33.375Z,16.85
2019-06-07T20:27:05.378Z,17.27
2019-06-07T20:29:37.685Z,14.78
2019-06-07T20:32:09.973Z,15.28
2019-06-07T20:34:44.695Z,54.58
2019-06-07T20:37:15.481Z,14.93
2019-06-07T20:39:47.571Z,16.00
2019-06-07T20:42:19.465Z,13.95
2019-06-07T20:44:51.283Z,13.65
2019-06-07T20:47:23.255Z,9.63
2019-06-07T20:49:55.243Z,9.35
2019-06-07T20:52:27.161Z,8.35
2019-06-07T20:55:00.459Z,8.70
2019-06-07T20:57:32.661Z,9.95
2019-06-07T21:00:14.279Z,9.40
2019-06-07T21:02:40.303Z,10.53
2019-06-07T21:05:12.402Z,10.68
2019-06-07T21:07:45.217Z,12.15
2019-06-07T21:10:17.154Z,12.40
2019-06-07T21:12:49.161Z,12.43
2019-06-07T21:15:21.142Z,12.88
2019-06-07T21:17:53.072Z,12.10
2019-06-07T21:20:25.395Z,12.15
2019-06-07T21:22:59.019Z,11.38
2019-06-07T21:25:31.556Z,11.35
2019-06-07T21:28:03.502Z,11.60
2019-06-07T21:30:35.319Z,10.68
2019-06-07T21:33:07.669Z,10.20
2019-06-07T21:35:39.817Z,12.93
2019-06-07T21:38:12.674Z,11.85
2019-06-07T21:40:45.349Z,9.95
2019-06-07T21:43:17.320Z,10.48
2019-06-07T21:46:01.529Z,10.80
2019-06-07T21:48:23.005Z,8.43
2019-06-07T21:50:54.957Z,9.13
2019-06-07T21:53:26.799Z,8.90
2019-06-07T21:55:58.851Z,9.18
2019-06-07T21:58:30.860Z,10.15
2019-06-07T22:01:08.049Z,8.68
2019-06-07T22:03:42.082Z,10.45
2019-06-07T22:06:16.668Z,9.65
2019-06-07T22:08:49.035Z,9.78
2019-06-07T22:11:21.282Z,8.80
2019-06-07T22:13:53.471Z,10.38
2019-06-07T22:16:29.242Z,8.85
2019-06-07T22:18:59.383Z,9.53
2019-06-07T22:21:31.870Z,7.67
2019-06-07T22:24:06.700Z,8.30
2019-06-07T22:26:39.021Z,7.92
2019-06-07T22:29:12.353Z,8.13
2019-06-07T22:31:44.532Z,8.18
2019-06-07T22:34:17.420Z,7.70
2019-06-07T22:36:49.611Z,8.30
2019-06-07T22:39:24.417Z,6.97
2019-06-07T22:41:56.449Z,5.55
2019-06-07T22:44:28.440Z,6.25
2019-06-07T22:47:00.481Z,5.90
2019-06-07T22:49:32.458Z,6.17
2019-06-07T22:52:08.651Z,6.25
2019-06-07T22:54:38.113Z,6.17
2019-06-07T22:57:16.525Z,6.53
2019-06-07T22:59:48.925Z,6.20
2019-06-07T23:02:22.182Z,8.23
2019-06-07T23:04:55.000Z,8.73
2019-06-07T23:07:27.307Z,9.13
2019-06-07T23:09:59.854Z,9.75
2019-06-07T23:12:32.047Z,12.82
2019-06-07T23:15:06.115Z,11.40
2019-06-07T23:17:38.249Z,13.40
2019-06-07T23:20:11.717Z,15.90
2019-06-07T23:22:44.107Z,16.20
2019-06-07T23:25:19.926Z,13.68
2019-06-07T23:27:49.547Z,19.12
2019-06-07T23:30:21.797Z,13.00
2019-06-07T23:32:53.946Z,13.75
2019-06-07T23:35:25.951Z,14.98
2019-06-07T23:37:57.873Z,19.17
2019-06-07T23:40:30.817Z,20.02
2019-06-07T23:43:04.732Z,20.70
2019-06-07T23:45:36.731Z,16.73
2019-06-07T23:48:08.975Z,19.82
2019-06-07T23:50:41.928Z,18.92
2019-06-07T23:53:14.179Z,17.90
2019-06-07T23:55:46.297Z,36.95
2019-06-07T23:58:18.583Z,22.05
